Time;durP1;ratioP1;P1;durP2;ratioP2;P2;SDS_P1;SDS_P2;PMS_P1;PMS_P2;Temp;Humidity;BMP_temperature;BMP_pressure;BME280_temperature;BME280_humidity;BME280_pressure;Samples;Min_cycle;Max_cycle;Signal;HPM_P1;HPM_P2
2021/12/29 00:01:00;;;;;;;8.53;1.57;;;;;;;9.55;72.06;95404.47;5072486;28;20198;-67
2021/12/29 00:03:25;;;;;;;7.27;1.73;;;;;;;9.62;71.93;95403.50;5072986;28;20228;-70
2021/12/29 00:05:51;;;;;;;7.40;1.33;;;;;;;9.69;71.13;95411.41;5064607;28;20199;-67
2021/12/29 00:08:17;;;;;;;10.57;2.17;;;;;;;9.25;72.37;95421.13;5071623;28;20175;-68
2021/12/29 00:10:42;;;;;;;8.10;1.50;;;;;;;9.21;72.84;95412.03;5064553;28;20186;-68
2021/12/29 00:13:08;;;;;;;5.03;1.33;;;;;;;9.30;72.39;95417.94;5073003;28;20622;-67
2021/12/29 00:15:34;;;;;;;4.90;1.00;;;;;;;9.24;72.08;95423.94;5064700;28;20210;-66
2021/12/29 00:18:00;;;;;;;5.47;1.23;;;;;;;9.63;71.21;95425.25;5072943;28;20677;-66
2021/12/29 00:20:29;;;;;;;4.40;1.47;;;;;;;9.27;72.69;95434.81;5072869;28;20570;-68
2021/12/29 00:22:59;;;;;;;4.00;1.03;;;;;;;9.36;71.99;95431.06;5070802;28;20602;-68
2021/12/29 00:25:25;;;;;;;4.97;1.27;;;;;;;9.68;71.19;95446.41;5072299;28;20448;-68
2021/12/29 00:27:54;;;;;;;3.10;1.20;;;;;;;9.99;70.40;95443.41;5056937;28;20497;-67
2021/12/29 00:30:20;;;;;;;3.43;1.20;;;;;;;9.17;72.24;95440.34;5072604;28;20920;-67
2021/12/29 00:32:46;;;;;;;5.20;1.27;;;;;;;9.59;71.98;95450.97;5066070;28;20460;-66
2021/12/29 00:35:14;;;;;;;3.60;1.00;;;;;;;9.89;70.81;95452.63;5076932;28;20422;-68
2021/12/29 00:37:41;;;;;;;4.07;1.30;;;;;;;9.42;72.78;95460.09;5054194;28;20266;-67
2021/12/29 00:40:07;;;;;;;3.63;1.23;;;;;;;10.20;70.10;95470.53;5066402;28;20421;-68
2021/12/29 00:42:33;;;;;;;3.57;1.10;;;;;;;9.69;71.82;95474.19;5065391;28;20429;-66
2021/12/29 00:44:58;;;;;;;6.40;1.50;;;;;;;9.40;72.86;95475.16;5070317;28;20424;-68
2021/12/29 00:47:24;;;;;;;5.23;1.60;;;;;;;9.41;73.10;95482.00;5072191;28;20194;-66
2021/12/29 00:49:50;;;;;;;7.47;1.90;;;;;;;9.77;72.24;95487.13;5071516;28;20206;-68
2021/12/29 00:52:15;;;;;;;7.80;1.10;;;;;;;9.65;71.79;95494.69;5070685;28;20260;-67
2021/12/29 00:54:43;;;;;;;5.20;0.93;;;;;;;9.34;73.70;95492.41;5072019;28;20265;-67
2021/12/29 00:57:10;;;;;;;4.37;1.10;;;;;;;9.46;73.49;95493.50;5063813;28;20250;-68
2021/12/29 00:59:36;;;;;;;3.50;1.40;;;;;;;9.22;74.11;95494.69;5066382;28;20457;-68
2021/12/29 01:02:02;;;;;;;4.00;1.10;;;;;;;9.54;72.80;95500.44;5071672;28;20182;-67
2021/12/29 01:04:27;;;;;;;5.27;1.33;;;;;;;9.37;72.62;95508.50;5072668;28;20644;-68
2021/12/29 01:06:53;;;;;;;3.00;1.00;;;;;;;9.00;73.82;95512.16;5071606;28;20501;-68
2021/12/29 01:09:19;;;;;;;2.90;1.00;;;;;;;9.71;71.93;95524.50;5070165;28;20232;-67
2021/12/29 01:11:44;;;;;;;3.73;1.07;;;;;;;9.44;73.34;95523.47;5069175;28;20282;-68
2021/12/29 01:14:10;;;;;;;4.17;0.90;;;;;;;9.15;74.12;95536.41;5070324;28;20199;-68
2021/12/29 01:16:37;;;;;;;6.50;1.13;;;;;;;9.68;72.85;95536.16;5072045;28;20212;-69
2021/12/29 01:19:18;;;;;;;6.17;1.23;;;;;;;8.98;75.26;95541.06;5070722;28;20301;-67
2021/12/29 01:21:46;;;;;;;1.97;1.00;;;;;;;9.21;74.53;95554.00;5069022;28;20422;-67
2021/12/29 01:24:12;;;;;;;6.10;1.20;;;;;;;9.76;72.85;95552.72;5071637;28;20413;-67
2021/12/29 01:26:38;;;;;;;3.33;1.00;;;;;;;9.65;73.51;95554.84;5071590;28;20799;-67
2021/12/29 01:29:04;;;;;;;2.93;0.87;;;;;;;9.61;73.14;95566.66;5071090;28;20519;-68
2021/12/29 01:31:30;;;;;;;3.60;1.07;;;;;;;9.43;74.04;95568.91;5071379;28;20213;-67
2021/12/29 01:33:55;;;;;;;6.57;1.10;;;;;;;9.16;74.67;95579.06;5071149;28;20547;-67
2021/12/29 01:36:21;;;;;;;5.47;1.23;;;;;;;9.41;74.35;95566.47;5071089;28;20202;-68
2021/12/29 01:38:47;;;;;;;1.87;0.80;;;;;;;9.74;72.37;95563.38;5071301;28;20263;-69
2021/12/29 01:41:12;;;;;;;2.43;1.10;;;;;;;9.95;71.71;95554.72;5060161;28;20212;-67
2021/12/29 01:43:38;;;;;;;6.80;1.17;;;;;;;9.70;72.00;95566.56;5064176;28;20175;-67
2021/12/29 01:46:03;;;;;;;4.93;0.90;;;;;;;9.65;72.86;95562.69;5069799;28;20210;-67
2021/12/29 01:48:29;;;;;;;2.40;1.03;;;;;;;9.77;72.00;95573.44;5070985;28;20696;-67
2021/12/29 01:50:56;;;;;;;2.70;0.80;;;;;;;9.76;72.37;95594.56;5062247;28;20841;-68
2021/12/29 01:53:24;;;;;;;4.40;1.00;;;;;;;9.72;72.77;95588.09;5070872;28;20213;-68
2021/12/29 01:55:51;;;;;;;4.07;0.87;;;;;;;9.72;72.65;95601.16;5070736;28;20445;-68
2021/12/29 01:58:17;;;;;;;3.30;0.80;;;;;;;9.46;73.21;95603.34;5067634;28;20919;-67
2021/12/29 02:00:43;;;;;;;1.10;0.70;;;;;;;9.90;72.45;95611.22;5069127;28;20431;-68
2021/12/29 02:03:09;;;;;;;3.10;0.80;;;;;;;9.73;72.20;95621.09;5062695;28;20779;-67
2021/12/29 02:05:35;;;;;;;2.00;0.77;;;;;;;9.95;71.70;95621.94;5070946;28;20226;-68
2021/12/29 02:08:01;;;;;;;3.17;0.90;;;;;;;9.81;72.56;95632.25;5071117;28;20178;-66
2021/12/29 02:10:31;;;;;;;1.70;0.73;;;;;;;9.60;73.24;95633.03;5062780;28;20420;-67
2021/12/29 02:12:59;;;;;;;1.87;0.90;;;;;;;9.62;73.00;95636.28;5070684;28;20691;-67
2021/12/29 02:15:24;;;;;;;1.97;0.67;;;;;;;9.75;72.73;95637.44;5070823;28;20448;-68
2021/12/29 02:17:50;;;;;;;2.40;0.60;;;;;;;9.88;71.77;95634.94;5069563;28;20435;-67
2021/12/29 02:20:19;;;;;;;1.70;0.80;;;;;;;9.15;74.38;95640.97;5071019;28;20630;-67
2021/12/29 02:22:48;;;;;;;2.43;0.60;;;;;;;9.55;73.38;95642.44;5072729;28;20194;-67
2021/12/29 02:27:52;;;;;;;1.33;0.60;;;;;;;9.56;72.27;95651.91;5066597;28;20768;-69
2021/12/29 02:30:23;;;;;;;1.30;0.67;;;;;;;9.70;72.36;95658.13;5066491;28;20416;-68
2021/12/29 02:32:55;;;;;;;3.27;0.67;;;;;;;9.37;72.83;95680.28;5074708;28;20459;-67
2021/12/29 02:35:21;;;;;;;2.50;0.70;;;;;;;9.66;72.00;95663.72;5074689;28;20916;-68
2021/12/29 02:37:46;;;;;;;1.40;0.57;;;;;;;9.47;72.79;95664.28;5073298;28;20788;-68
2021/12/29 02:40:12;;;;;;;2.33;0.57;;;;;;;9.99;71.01;95668.47;5052417;28;20417;-69
2021/12/29 02:42:42;;;;;;;1.27;0.70;;;;;;;9.44;72.46;95665.47;5074344;28;20621;-70
2021/12/29 02:45:13;;;;;;;1.30;0.70;;;;;;;9.51;71.87;95681.22;5074230;28;20183;-67
2021/12/29 02:47:38;;;;;;;1.40;0.60;;;;;;;9.93;70.54;95690.16;5074284;28;20459;-69
2021/12/29 02:50:04;;;;;;;1.80;0.70;;;;;;;9.48;71.13;95700.72;5073830;28;20832;-67
2021/12/29 02:52:30;;;;;;;2.03;0.80;;;;;;;9.46;71.31;95701.88;5065668;28;20198;-68
2021/12/29 02:54:55;;;;;;;2.07;0.70;;;;;;;9.59;70.75;95698.63;5073960;28;20438;-68
2021/12/29 02:57:21;;;;;;;1.10;0.53;;;;;;;9.56;70.71;95702.44;5073906;28;20198;-68
2021/12/29 02:59:47;;;;;;;1.77;0.60;;;;;;;9.63;70.08;95687.63;5073863;28;20490;-68
2021/12/29 03:02:12;;;;;;;1.40;0.60;;;;;;;9.56;70.29;95712.06;5057771;28;20266;-67
2021/12/29 03:04:38;;;;;;;0.83;0.50;;;;;;;9.88;69.58;95702.97;5074345;28;20655;-69
2021/12/29 03:07:04;;;;;;;1.33;0.60;;;;;;;9.63;70.06;95715.59;5065617;28;20198;-68
2021/12/29 03:09:29;;;;;;;1.00;0.50;;;;;;;9.90;69.70;95721.09;5070526;28;20185;-68
2021/12/29 03:11:55;;;;;;;1.80;0.70;;;;;;;9.92;69.40;95738.25;5071390;28;20181;-66
2021/12/29 03:14:21;;;;;;;1.67;0.63;;;;;;;10.15;68.47;95734.69;5069287;28;20269;-67
2021/12/29 03:16:47;;;;;;;1.07;0.50;;;;;;;9.91;70.23;95735.81;5070183;28;20217;-68
2021/12/29 03:19:13;;;;;;;2.90;0.50;;;;;;;9.98;69.55;95753.22;5057217;28;20485;-66
2021/12/29 03:21:40;;;;;;;2.30;0.53;;;;;;;9.77;70.54;95759.19;5070185;28;20424;-67
2021/12/29 03:24:06;;;;;;;0.70;0.47;;;;;;;9.92;69.66;95756.59;5070135;28;20174;-69
2021/12/29 03:26:32;;;;;;;1.10;0.60;;;;;;;10.03;69.44;95746.63;5067068;28;20475;-69
2021/12/29 03:28:59;;;;;;;1.07;0.60;;;;;;;10.45;67.81;95745.09;5073046;28;20421;-67
2021/12/29 03:31:26;;;;;;;1.33;0.50;;;;;;;10.19;68.76;95735.94;5068033;28;20225;-68
2021/12/29 03:33:52;;;;;;;1.00;0.70;;;;;;;9.73;70.46;95738.81;5069967;28;20463;-67
2021/12/29 03:36:19;;;;;;;1.00;0.70;;;;;;;10.44;68.66;95740.84;5041406;28;20944;-66
2021/12/29 03:38:45;;;;;;;1.00;0.60;;;;;;;9.98;69.59;95737.50;5065736;28;20644;-67
2021/12/29 03:41:14;;;;;;;0.93;0.40;;;;;;;10.67;68.07;95737.22;5051164;28;20420;-68
2021/12/29 03:43:41;;;;;;;0.97;0.60;;;;;;;10.85;67.49;95742.00;5073533;28;20448;-69
2021/12/29 03:46:07;;;;;;;0.80;0.50;;;;;;;11.07;66.83;95721.78;5073034;28;20444;-67
2021/12/29 03:48:34;;;;;;;1.30;0.60;;;;;;;10.85;67.23;95724.44;5065520;28;20514;-68
2021/12/29 03:51:01;;;;;;;1.33;0.63;;;;;;;10.83;67.85;95736.13;5071269;28;20186;-67
2021/12/29 03:53:27;;;;;;;0.80;0.50;;;;;;;11.14;66.79;95733.13;5073010;28;20939;-67
2021/12/29 03:55:53;;;;;;;0.90;0.60;;;;;;;10.42;68.90;95750.69;5073224;28;20437;-67
2021/12/29 03:58:22;;;;;;;5.53;0.80;;;;;;;10.66;68.74;95746.06;5057409;28;20766;-67
2021/12/29 04:00:50;;;;;;;1.47;0.70;;;;;;;10.91;67.72;95739.41;5069889;28;20186;-69
2021/12/29 04:03:16;;;;;;;1.23;0.50;;;;;;;11.14;66.93;95735.75;5049492;28;20416;-66
2021/12/29 04:05:42;;;;;;;3.90;0.97;;;;;;;11.17;66.61;95742.41;5068755;28;20447;-69
2021/12/29 04:08:08;;;;;;;1.30;0.60;;;;;;;11.05;67.08;95742.16;5075166;28;20281;-69
2021/12/29 04:10:34;;;;;;;2.80;0.77;;;;;;;11.18;66.94;95757.13;5067385;28;20190;-67
2021/12/29 04:13:00;;;;;;;3.87;1.00;;;;;;;11.25;66.57;95765.06;5072338;28;20796;-67
2021/12/29 04:15:27;;;;;;;1.77;0.70;;;;;;;11.18;66.63;95760.59;5071388;28;20222;-68
2021/12/29 04:17:58;;;;;;;0.83;0.53;;;;;;;10.98;67.20;95767.47;5072356;28;20816;-67
2021/12/29 04:23:10;;;;;;;3.13;0.73;;;;;;;11.12;66.80;95763.16;5064073;28;20419;-68
2021/12/29 04:25:37;;;;;;;2.10;0.80;;;;;;;10.53;68.88;95772.94;5072585;28;20535;-67
2021/12/29 04:28:07;;;;;;;0.83;0.60;;;;;;;10.74;67.82;95774.75;5072251;28;20541;-67
2021/12/29 04:30:32;;;;;;;1.63;0.80;;;;;;;11.03;67.11;95778.22;5072508;28;20428;-67
2021/12/29 04:32:58;;;;;;;2.27;1.30;;;;;;;11.19;66.27;95782.38;5063833;28;20451;-67
2021/12/29 04:35:24;;;;;;;3.60;0.70;;;;;;;11.14;66.53;95795.25;5072055;28;20194;-66
2021/12/29 04:37:50;;;;;;;3.33;0.80;;;;;;;10.44;68.95;95811.56;5072159;28;20590;-67
2021/12/29 04:40:16;;;;;;;3.30;1.20;;;;;;;10.71;68.68;95809.22;5062392;28;20226;-67
2021/12/29 04:42:42;;;;;;;2.17;0.70;;;;;;;10.33;70.60;95809.41;5067640;28;20421;-67
2021/12/29 04:45:08;;;;;;;2.03;0.70;;;;;;;9.94;72.72;95806.94;5071215;28;20443;-67
2021/12/29 04:47:38;;;;;;;7.60;1.10;;;;;;;9.82;73.46;95814.44;5071795;28;20206;-67
2021/12/29 04:50:07;;;;;;;3.73;0.80;;;;;;;10.25;72.12;95808.50;5070564;28;20840;-67
2021/12/29 04:52:33;;;;;;;2.13;0.80;;;;;;;10.48;71.25;95812.78;5052211;28;20461;-69
2021/12/29 04:54:58;;;;;;;2.33;0.80;;;;;;;10.34;71.50;95817.06;5059559;28;20942;-66
2021/12/29 04:57:25;;;;;;;1.63;0.80;;;;;;;10.03;72.62;95825.94;5048534;28;20195;-69
2021/12/29 04:59:51;;;;;;;2.73;0.80;;;;;;;10.01;72.55;95824.50;5051324;28;20723;-69
2021/12/29 05:02:17;;;;;;;3.33;0.80;;;;;;;10.36;71.62;95829.94;5051168;28;20474;-68
2021/12/29 05:04:54;;;;;;;3.00;1.00;;;;;;;10.41;71.65;95827.63;5051526;28;20179;-66
2021/12/29 05:10:04;;;;;;;2.00;0.80;;;;;;;9.94;73.14;95837.50;5050971;28;20455;-68
2021/12/29 05:12:30;;;;;;;2.47;0.73;;;;;;;10.17;72.52;95842.66;5051537;28;20422;-68
2021/12/29 05:14:55;;;;;;;2.67;0.80;;;;;;;10.09;72.73;95840.94;5051277;28;20258;-66
2021/12/29 05:17:21;;;;;;;5.70;0.90;;;;;;;9.89;73.53;95837.25;5059539;28;20206;-67
2021/12/29 05:19:46;;;;;;;3.00;1.20;;;;;;;10.09;72.73;95855.81;5051012;28;20210;-68
2021/12/29 05:22:12;;;;;;;2.57;0.90;;;;;;;10.22;72.42;95853.38;5047646;28;20198;-67
2021/12/29 05:24:38;;;;;;;2.47;0.80;;;;;;;10.19;72.76;95863.41;5051501;28;20531;-68
2021/12/29 05:27:04;;;;;;;4.40;1.00;;;;;;;10.21;72.69;95858.78;5049774;28;20708;-67
2021/12/29 05:29:29;;;;;;;2.70;0.73;;;;;;;9.96;73.09;95852.03;5051032;28;20405;-68
2021/12/29 05:31:55;;;;;;;2.43;0.93;;;;;;;9.72;74.02;95854.94;5050829;28;20182;-68
2021/12/29 05:34:20;;;;;;;2.80;0.80;;;;;;;9.90;73.71;95852.78;5049818;28;20195;-68
2021/12/29 05:36:46;;;;;;;4.27;0.80;;;;;;;9.82;74.40;95852.88;5050732;28;20199;-67
2021/12/29 05:39:12;;;;;;;1.77;0.80;;;;;;;10.21;72.54;95859.59;5059222;28;20233;-68
2021/12/29 05:41:38;;;;;;;3.80;1.00;;;;;;;9.97;73.40;95853.66;5050944;28;20183;-67
2021/12/29 05:44:03;;;;;;;1.87;0.80;;;;;;;10.14;72.32;95853.47;5050909;28;20190;-67
2021/12/29 05:46:29;;;;;;;3.23;0.80;;;;;;;10.01;73.25;95855.94;5049465;28;20198;-68
2021/12/29 05:48:55;;;;;;;5.47;0.83;;;;;;;10.50;71.30;95857.16;5051907;28;20183;-67
2021/12/29 05:51:20;;;;;;;3.23;0.90;;;;;;;9.53;74.26;95859.69;5058676;28;20278;-67
2021/12/29 05:53:46;;;;;;;4.80;1.10;;;;;;;9.88;73.84;95865.22;5051928;28;20228;-67
2021/12/29 05:56:11;;;;;;;3.17;0.80;;;;;;;10.29;71.58;95877.00;5056677;28;20194;-66
2021/12/29 05:58:38;;;;;;;5.37;1.00;;;;;;;10.39;71.75;95877.59;5054338;28;20222;-68
2021/12/29 06:01:04;;;;;;;5.20;0.97;;;;;;;10.10;72.08;95883.63;5057119;28;20210;-67
2021/12/29 06:03:30;;;;;;;3.10;1.20;;;;;;;9.97;73.40;95879.03;5057648;28;20816;-67
2021/12/29 06:05:55;;;;;;;1.90;1.03;;;;;;;10.45;71.68;95884.69;5056982;28;20540;-67
2021/12/29 06:08:21;;;;;;;1.43;0.80;;;;;;;10.66;70.76;95890.16;5056327;28;20425;-68
2021/12/29 06:10:47;;;;;;;5.63;1.07;;;;;;;10.88;70.09;95898.88;5057149;28;20241;-67
2021/12/29 06:13:12;;;;;;;5.83;1.10;;;;;;;10.90;69.77;95902.94;5049221;28;20230;-67
2021/12/29 06:15:38;;;;;;;5.20;1.20;;;;;;;10.97;69.66;95891.69;5064561;28;20653;-68
2021/12/29 06:18:04;;;;;;;3.10;1.20;;;;;;;10.76;69.79;95901.16;5068819;28;20189;-67
2021/12/29 06:20:30;;;;;;;5.80;1.13;;;;;;;10.82;69.89;95908.28;5062743;28;20203;-70
2021/12/29 06:22:55;;;;;;;3.93;1.10;;;;;;;10.92;69.64;95905.34;5057843;28;20182;-68
2021/12/29 06:25:21;;;;;;;3.63;1.00;;;;;;;10.88;70.18;95910.16;5057607;28;20179;-66
2021/12/29 06:27:47;;;;;;;6.37;1.53;;;;;;;10.91;69.62;95907.16;5056032;28;20638;-67
2021/12/29 06:30:15;;;;;;;4.47;0.90;;;;;;;10.76;70.53;95914.25;5049537;28;20182;-68
2021/12/29 06:32:42;;;;;;;2.07;1.00;;;;;;;10.85;70.12;95913.13;5064711;28;20559;-67
2021/12/29 06:35:09;;;;;;;4.53;1.23;;;;;;;10.42;71.63;95908.63;5057539;28;20500;-67
2021/12/29 06:37:35;;;;;;;3.57;0.97;;;;;;;10.73;70.72;95914.63;5057162;28;20935;-68
2021/12/29 06:40:01;;;;;;;4.17;1.30;;;;;;;10.84;70.09;95914.13;5056608;28;20457;-68
2021/12/29 06:42:26;;;;;;;4.60;0.80;;;;;;;10.24;72.44;95913.41;5057292;28;20421;-67
2021/12/29 06:44:52;;;;;;;1.50;0.70;;;;;;;10.13;73.38;95915.50;5056899;28;20660;-67
2021/12/29 06:47:17;;;;;;;1.90;0.90;;;;;;;9.92;74.13;95921.44;5038805;28;20294;-69
2021/12/29 06:49:44;;;;;;;2.53;0.77;;;;;;;9.54;75.17;95911.03;5055369;28;20190;-68
2021/12/29 06:52:10;;;;;;;1.87;0.80;;;;;;;10.02;73.27;95923.78;5062519;28;20721;-68
2021/12/29 06:54:36;;;;;;;1.50;0.90;;;;;;;9.89;74.11;95913.94;5057222;28;20457;-68
2021/12/29 06:57:03;;;;;;;2.13;1.20;;;;;;;10.01;73.29;95922.19;5053611;28;20785;-67
2021/12/29 06:59:29;;;;;;;2.47;1.40;;;;;;;10.04;73.21;95924.41;5056663;28;20434;-67
2021/12/29 07:01:55;;;;;;;2.63;1.10;;;;;;;9.59;75.25;95934.03;5057188;28;20433;-69
2021/12/29 07:04:23;;;;;;;3.70;1.60;;;;;;;10.18;73.19;95928.06;5057359;28;20175;-69
2021/12/29 07:06:52;;;;;;;2.23;1.00;;;;;;;10.19;73.08;95934.91;5062192;28;20217;-66
2021/12/29 07:09:18;;;;;;;3.30;1.00;;;;;;;10.15;73.33;95946.72;5065339;28;20491;-70
2021/12/29 07:11:44;;;;;;;2.70;1.33;;;;;;;10.48;72.43;95949.00;5070596;28;20409;-69
2021/12/29 07:14:10;;;;;;;1.70;1.03;;;;;;;10.65;71.59;95962.69;5066262;28;20513;-68
2021/12/29 07:16:37;;;;;;;5.30;1.07;;;;;;;10.37;72.25;95962.53;5074115;28;20553;-68
2021/12/29 07:19:03;;;;;;;1.53;0.70;;;;;;;10.07;74.16;95963.34;5074144;28;20174;-68
2021/12/29 07:21:29;;;;;;;5.00;0.80;;;;;;;10.22;73.76;95973.81;5073391;28;20429;-69
2021/12/29 07:23:55;;;;;;;4.00;1.23;;;;;;;10.40;72.91;95972.66;5071976;28;20473;-67
2021/12/29 07:26:24;;;;;;;4.37;1.43;;;;;;;10.41;73.13;95975.09;5073210;28;20230;-67
2021/12/29 07:28:51;;;;;;;4.30;1.37;;;;;;;10.37;73.05;95963.34;5072928;28;20507;-68
2021/12/29 07:31:19;;;;;;;6.13;1.03;;;;;;;10.38;73.37;95969.41;5074013;28;20459;-69
2021/12/29 07:33:45;;;;;;;5.80;1.30;;;;;;;10.43;73.19;95977.56;5074276;28;20448;-68
2021/12/29 07:36:11;;;;;;;5.07;1.83;;;;;;;10.63;72.68;95983.06;5071739;28;21143;-68
2021/12/29 07:38:39;;;;;;;26.00;6.30;;;;;;;10.74;72.26;95974.72;5067691;28;20529;-70
2021/12/29 07:41:04;;;;;;;13.93;3.17;;;;;;;10.87;71.86;95988.97;5072134;28;20421;-69
2021/12/29 07:43:30;;;;;;;9.03;2.97;;;;;;;10.54;72.02;95999.84;5073487;28;20867;-69
2021/12/29 07:45:55;;;;;;;5.37;1.73;;;;;;;10.78;72.04;95998.75;5073181;28;20603;-68
2021/12/29 07:48:27;;;;;;;16.73;4.53;;;;;;;10.65;72.50;96011.69;5073386;28;20186;-69
2021/12/29 07:50:53;;;;;;;7.23;2.70;;;;;;;10.94;71.36;96023.13;5073246;28;20182;-69
2021/12/29 07:53:18;;;;;;;14.80;4.13;;;;;;;10.92;71.55;96023.31;5073699;28;20440;-69
2021/12/29 07:55:44;;;;;;;2.70;1.30;;;;;;;10.45;72.47;96017.47;5073537;28;20448;-67
2021/12/29 07:58:10;;;;;;;13.83;6.80;;;;;;;10.84;72.18;96018.97;5069794;28;20537;-67
2021/12/29 08:00:35;;;;;;;7.50;3.13;;;;;;;11.09;71.21;96029.13;5072770;28;20191;-68
2021/12/29 08:03:01;;;;;;;7.97;3.70;;;;;;;10.94;71.32;96029.19;5071523;28;20209;-69
2021/12/29 08:05:27;;;;;;;4.10;2.47;;;;;;;10.81;71.57;96036.88;5073241;28;20198;-67
2021/12/29 08:07:52;;;;;;;4.93;1.70;;;;;;;11.03;71.41;96043.78;5070897;28;20182;-67
2021/12/29 08:10:18;;;;;;;5.90;2.17;;;;;;;10.47;72.84;96057.38;5072492;28;20743;-67
2021/12/29 08:12:44;;;;;;;4.40;2.37;;;;;;;10.78;72.23;96053.78;5072484;28;20198;-69
2021/12/29 08:15:11;;;;;;;4.23;1.63;;;;;;;10.89;71.73;96042.03;5072709;28;20175;-71
2021/12/29 08:17:37;;;;;;;5.87;2.17;;;;;;;10.84;71.89;96042.56;5072394;28;20672;-65
2021/12/29 08:20:04;;;;;;;2.80;1.50;;;;;;;10.44;73.39;96052.53;5071640;28;20433;-67
2021/12/29 08:22:30;;;;;;;6.97;2.60;;;;;;;10.80;72.37;96046.56;5069624;28;20452;-70
2021/12/29 08:24:55;;;;;;;3.27;1.30;;;;;;;10.95;72.38;96045.72;5072514;28;20890;-68
2021/12/29 08:27:21;;;;;;;2.90;1.50;;;;;;;10.65;73.50;96049.16;5071041;28;20194;-68
2021/12/29 08:29:48;;;;;;;2.57;1.40;;;;;;;10.98;72.27;96048.78;5071956;28;20618;-69
2021/12/29 08:32:14;;;;;;;4.47;1.80;;;;;;;11.20;71.76;96051.47;5069360;28;20853;-66
2021/12/29 08:34:40;;;;;;;1.80;1.50;;;;;;;11.28;70.95;96058.41;5057683;28;20464;-68
2021/12/29 08:37:05;;;;;;;2.60;1.40;;;;;;;10.67;72.90;96056.84;5069241;28;20206;-68
2021/12/29 08:39:31;;;;;;;2.20;1.20;;;;;;;10.81;72.15;96048.19;5073043;28;20250;-69
2021/12/29 08:41:56;;;;;;;9.47;1.30;;;;;;;10.68;72.80;96048.00;5072273;28;20255;-66
2021/12/29 08:44:22;;;;;;;4.00;1.67;;;;;;;11.01;71.74;96040.56;5072998;28;20649;-66
2021/12/29 08:46:48;;;;;;;5.20;1.20;;;;;;;10.24;74.34;96045.13;5064351;28;20889;-68
2021/12/29 08:49:14;;;;;;;3.63;1.00;;;;;;;10.36;73.86;96049.94;5072224;28;20174;-67
2021/12/29 08:51:40;;;;;;;4.10;1.27;;;;;;;10.27;74.01;96060.50;5072347;28;20186;-68
2021/12/29 08:54:06;;;;;;;2.50;0.90;;;;;;;9.71;76.24;96060.81;5070480;28;20609;-65
2021/12/29 08:56:31;;;;;;;3.33;1.27;;;;;;;10.82;72.55;96049.81;5070962;28;20448;-67
2021/12/29 08:58:57;;;;;;;2.43;1.00;;;;;;;11.06;71.52;96055.75;5069264;28;20489;-69
2021/12/29 09:01:24;;;;;;;2.13;1.20;;;;;;;11.17;71.13;96063.13;5071785;28;20327;-67
2021/12/29 09:03:50;;;;;;;3.97;1.17;;;;;;;11.32;70.36;96054.44;5071828;28;20268;-67
2021/12/29 09:06:16;;;;;;;3.13;1.30;;;;;;;11.55;70.01;96062.13;5060683;28;20861;-68
2021/12/29 09:08:42;;;;;;;4.80;2.07;;;;;;;11.61;69.71;96050.06;5070466;28;20452;-67
2021/12/29 09:11:09;;;;;;;5.80;3.87;;;;;;;11.63;69.35;96059.41;5071187;28;20308;-67
2021/12/29 09:13:35;;;;;;;4.77;1.60;;;;;;;11.72;69.05;96054.81;5071374;28;20452;-70
2021/12/29 09:16:02;;;;;;;3.20;1.30;;;;;;;11.49;69.77;96061.06;5071416;28;20516;-69
2021/12/29 09:18:29;;;;;;;4.63;1.20;;;;;;;11.41;69.02;96074.28;5071670;28;20413;-67
2021/12/29 09:20:58;;;;;;;4.10;0.93;;;;;;;11.62;68.89;96075.31;5070963;28;20449;-69
2021/12/29 09:23:23;;;;;;;2.70;1.30;;;;;;;11.73;68.12;96072.19;5067976;28;20433;-69
2021/12/29 09:25:49;;;;;;;5.00;1.40;;;;;;;11.97;67.93;96065.75;5069354;28;20477;-68
2021/12/29 09:28:18;;;;;;;3.80;1.47;;;;;;;12.10;68.01;96066.91;5071321;28;20208;-66
2021/12/29 09:30:45;;;;;;;1.40;1.00;;;;;;;12.01;68.04;96057.53;5070467;28;20186;-67
2021/12/29 09:33:11;;;;;;;6.30;2.33;;;;;;;12.13;67.98;96061.28;5071101;28;20448;-68
2021/12/29 09:35:37;;;;;;;1.60;1.10;;;;;;;12.13;67.38;96072.56;5070402;28;20862;-67
2021/12/29 09:38:05;;;;;;;2.07;1.43;;;;;;;12.05;68.16;96070.09;5069675;28;20427;-67
2021/12/29 09:40:31;;;;;;;2.80;1.40;;;;;;;12.07;67.35;96083.84;5070436;28;20495;-68
2021/12/29 09:42:56;;;;;;;4.77;2.60;;;;;;;12.34;66.78;96084.06;5070984;28;20482;-68
2021/12/29 09:45:23;;;;;;;3.60;1.60;;;;;;;12.20;66.92;96087.59;5071401;28;20426;-66
2021/12/29 09:47:49;;;;;;;4.40;2.07;;;;;;;12.44;67.08;96081.91;5069411;28;20228;-67
2021/12/29 09:50:17;;;;;;;1.70;1.60;;;;;;;12.51;66.22;96078.50;5070823;28;20428;-68
2021/12/29 09:52:43;;;;;;;3.73;1.83;;;;;;;12.54;66.05;96088.66;5071020;28;20428;-66
2021/12/29 09:55:13;;;;;;;4.40;1.47;;;;;;;12.63;65.81;96081.44;5067898;28;20933;-68
2021/12/29 09:57:44;;;;;;;4.80;1.83;;;;;;;12.66;65.75;96092.38;5063346;28;20224;-69
2021/12/29 10:00:19;;;;;;;5.63;1.90;;;;;;;12.63;65.87;96081.44;5070382;28;20425;-67
2021/12/29 10:02:45;;;;;;;2.20;1.50;;;;;;;12.75;65.46;96087.78;5071065;28;20830;-67
2021/12/29 10:05:11;;;;;;;5.20;1.90;;;;;;;12.72;65.30;96083.72;5070688;28;20424;-67
2021/12/29 10:07:37;;;;;;;3.50;1.50;;;;;;;12.58;65.62;96095.94;5060338;28;20432;-68
2021/12/29 10:10:15;;;;;;;3.77;1.60;;;;;;;12.67;65.31;96103.69;5069500;28;20187;-68
2021/12/29 10:12:42;;;;;;;3.60;1.83;;;;;;;12.70;65.22;96104.13;5070891;28;20174;-67
2021/12/29 10:15:08;;;;;;;2.53;1.70;;;;;;;12.61;65.46;96089.50;5070760;28;20433;-68
2021/12/29 10:17:33;;;;;;;6.77;2.10;;;;;;;12.84;65.15;96088.44;5070788;28;20436;-70
2021/12/29 10:20:05;;;;;;;2.80;1.63;;;;;;;12.77;64.66;96080.50;5062059;28;20632;-69
2021/12/29 10:22:31;;;;;;;3.80;1.60;;;;;;;12.93;64.53;96071.47;5068442;28;20265;-68
2021/12/29 10:25:06;;;;;;;3.30;1.53;;;;;;;12.66;65.12;96071.34;5036503;28;20983;-67
2021/12/29 10:27:32;;;;;;;5.90;1.63;;;;;;;12.61;64.73;96073.72;5063155;28;20219;-66
2021/12/29 10:29:58;;;;;;;2.27;1.23;;;;;;;12.54;64.55;96073.69;5070784;28;20923;-68
2021/12/29 10:32:24;;;;;;;3.47;2.17;;;;;;;12.51;63.96;96078.50;5070762;28;20477;-67
2021/12/29 10:34:54;;;;;;;1.57;1.03;;;;;;;12.70;63.13;96064.69;5069385;28;20202;-68
2021/12/29 10:37:23;;;;;;;5.60;1.43;;;;;;;12.74;62.93;96067.75;5061862;28;20524;-68
2021/12/29 10:39:52;;;;;;;3.40;1.57;;;;;;;12.26;64.11;96068.44;5067430;28;20825;-67
2021/12/29 10:42:23;;;;;;;2.97;1.87;;;;;;;12.68;63.21;96068.50;5073025;28;20915;-69
2021/12/29 10:44:52;;;;;;;4.30;1.77;;;;;;;12.70;63.07;96055.97;5073460;28;20892;-67
2021/12/29 10:47:18;;;;;;;2.30;1.40;;;;;;;12.71;63.30;96060.25;5074455;28;20815;-66
2021/12/29 10:50:11;;;;;;;4.53;1.40;;;;;;;12.84;63.19;96057.69;5074444;28;20815;-67
2021/12/29 10:52:44;;;;;;;1.40;1.30;;;;;;;13.05;62.56;96059.41;5065218;28;20420;-67
2021/12/29 10:55:31;;;;;;;5.07;1.43;;;;;;;12.84;63.00;96055.06;5074640;28;20959;-67
2021/12/29 10:58:08;;;;;;;4.07;1.90;;;;;;;12.96;62.64;96059.75;5070805;28;20428;-67
2021/12/29 11:00:36;;;;;;;3.60;1.57;;;;;;;12.68;63.55;96050.94;5074273;28;20866;-67
2021/12/29 11:03:13;;;;;;;2.70;1.50;;;;;;;12.95;62.62;96064.22;5074510;28;20421;-65
2021/12/29 11:05:42;;;;;;;8.40;1.90;;;;;;;13.08;62.81;96057.41;5073867;28;20444;-69
2021/12/29 11:08:10;;;;;;;2.00;1.27;;;;;;;12.46;63.00;96060.69;5074137;28;20417;-67
2021/12/29 11:10:36;;;;;;;3.83;1.10;;;;;;;12.49;63.45;96064.75;5065834;28;20420;-67
2021/12/29 11:13:03;;;;;;;4.73;2.07;;;;;;;12.74;62.57;96062.50;5072709;28;20474;-68
2021/12/29 11:15:32;;;;;;;5.23;1.37;;;;;;;12.83;62.48;96060.50;5066429;28;20941;-68
2021/12/29 11:18:06;;;;;;;3.30;1.40;;;;;;;12.50;63.46;96048.81;5072025;28;20456;-67
2021/12/29 11:20:33;;;;;;;4.17;1.53;;;;;;;12.27;64.02;96059.56;5073576;28;20919;-69
2021/12/29 11:23:14;;;;;;;4.20;1.67;;;;;;;12.50;63.65;96054.06;5069171;28;20453;-68
2021/12/29 11:25:41;;;;;;;5.17;1.17;;;;;;;12.66;63.38;96054.75;5060621;28;21008;-68
2021/12/29 11:28:18;;;;;;;5.33;1.63;;;;;;;12.36;63.81;96065.47;5064675;28;20464;-66
2021/12/29 11:30:44;;;;;;;2.90;1.30;;;;;;;12.40;64.04;96057.03;5073353;28;20428;-68
2021/12/29 11:33:11;;;;;;;3.00;1.53;;;;;;;12.04;65.32;96049.25;5072600;28;20468;-67
2021/12/29 11:35:45;;;;;;;4.40;1.60;;;;;;;12.47;64.73;96040.50;5072821;28;20947;-69
2021/12/29 11:38:11;;;;;;;3.13;1.30;;;;;;;12.58;64.32;96037.34;5072001;28;20417;-67
2021/12/29 11:40:40;;;;;;;3.90;1.60;;;;;;;12.43;64.62;96051.38;5072884;28;20477;-69
2021/12/29 11:43:09;;;;;;;2.33;1.20;;;;;;;12.36;64.74;96045.25;5071880;28;20417;-66